createdAt,value
2018-01-15T00:01:30.038Z,75.12
2018-01-15T00:03:59.036Z,75.25
2018-01-15T00:06:28.815Z,75.08
2018-01-15T00:08:57.715Z,75.03
2018-01-15T00:11:26.526Z,75.06
2018-01-15T00:13:55.458Z,75.60
2018-01-15T00:16:24.366Z,75.26
2018-01-15T00:18:53.225Z,75.12
2018-01-15T00:21:23.247Z,75.64
2018-01-15T00:23:52.100Z,75.22
2018-01-15T00:26:21.002Z,75.10
2018-01-15T00:28:51.035Z,75.16
2018-01-15T00:31:19.893Z,75.26
2018-01-15T00:33:48.806Z,75.05
2018-01-15T00:36:17.731Z,75.09
2018-01-15T00:38:46.582Z,75.09
2018-01-15T00:41:15.403Z,74.93
2018-01-15T00:43:44.357Z,74.83
2018-01-15T00:46:13.189Z,74.61
2018-01-15T00:48:42.018Z,74.67
2018-01-15T00:51:11.004Z,74.75
2018-01-15T00:53:39.829Z,74.96
2018-01-15T00:56:08.654Z,74.92
2018-01-15T00:58:40.072Z,74.81
2018-01-15T01:01:08.902Z,74.62
2018-01-15T01:03:37.743Z,74.35
2018-01-15T01:06:07.452Z,74.56
2018-01-15T01:08:36.333Z,73.62
2018-01-15T01:11:05.205Z,73.98
2018-01-15T01:13:34.057Z,73.96
2018-01-15T01:16:02.994Z,74.11
2018-01-15T01:18:31.944Z,74.59
2018-01-15T01:21:00.835Z,74.40
2018-01-15T01:23:29.661Z,74.20
2018-01-15T01:25:58.561Z,74.52
2018-01-15T01:28:27.487Z,74.21
2018-01-15T01:30:59.130Z,74.16
2018-01-15T01:33:28.076Z,73.88
2018-01-15T01:36:01.217Z,74.29
2018-01-15T01:38:30.053Z,74.11
2018-01-15T01:40:58.851Z,74.44
2018-01-15T01:43:27.796Z,74.41
2018-01-15T01:45:56.639Z,74.48
2018-01-15T01:48:25.445Z,74.40
2018-01-15T01:50:54.396Z,74.10
2018-01-15T01:53:23.288Z,73.72
2018-01-15T01:55:52.095Z,74.16
2018-01-15T01:58:21.970Z,74.53
2018-01-15T02:00:50.850Z,74.49
2018-01-15T02:03:19.650Z,74.28
2018-01-15T02:05:50.388Z,74.10
2018-01-15T02:08:19.239Z,74.37
2018-01-15T02:10:48.104Z,74.27
2018-01-15T02:13:16.983Z,74.23
2018-01-15T02:15:45.908Z,74.51
2018-01-15T02:18:14.767Z,74.30
2018-01-15T02:20:44.443Z,74.18
2018-01-15T02:23:13.307Z,74.75
2018-01-15T02:25:42.199Z,74.74
2018-01-15T02:28:17.891Z,74.09
2018-01-15T02:30:46.732Z,74.45
2018-01-15T02:33:15.686Z,74.67
2018-01-15T02:35:46.197Z,74.62
2018-01-15T02:38:15.007Z,74.50
2018-01-15T02:40:44.990Z,73.82
2018-01-15T02:43:16.617Z,74.33
2018-01-15T02:45:45.431Z,74.41
2018-01-15T02:48:14.240Z,74.19
2018-01-15T02:50:45.789Z,74.30
2018-01-15T02:53:14.656Z,74.25
2018-01-15T02:55:43.475Z,74.06
2018-01-15T02:58:14.830Z,73.92
2018-01-15T03:00:52.712Z,74.14
2018-01-15T03:03:22.590Z,74.07
2018-01-15T03:05:51.589Z,73.58
2018-01-15T03:08:21.878Z,73.59
2018-01-15T03:10:51.799Z,73.42
2018-01-15T03:13:21.913Z,73.05
2018-01-15T03:15:51.914Z,73.07
2018-01-15T03:18:22.874Z,72.63
2018-01-15T03:20:51.868Z,72.53
2018-01-15T03:23:21.770Z,72.62
2018-01-15T03:25:50.879Z,72.96
2018-01-15T03:28:19.842Z,73.31
2018-01-15T03:30:48.773Z,73.75
2018-01-15T03:33:20.319Z,73.43
2018-01-15T03:35:49.308Z,73.53
2018-01-15T03:38:18.298Z,73.64
2018-01-15T03:40:48.269Z,73.55
2018-01-15T03:43:17.261Z,73.58
2018-01-15T03:45:46.042Z,73.29
2018-01-15T03:48:14.914Z,73.21
2018-01-15T03:50:43.720Z,73.08
2018-01-15T03:53:12.468Z,73.02
2018-01-15T03:55:41.278Z,72.66
2018-01-15T03:58:10.081Z,72.61
2018-01-15T04:00:38.872Z,72.14
2018-01-15T04:03:10.468Z,71.70
2018-01-15T04:05:39.252Z,71.32
2018-01-15T04:08:08.020Z,71.34
2018-01-15T04:10:37.131Z,71.43
2018-01-15T04:13:06.043Z,71.35
2018-01-15T04:15:35.054Z,71.03
2018-01-15T04:18:06.227Z,70.77
2018-01-15T04:20:35.186Z,71.17
2018-01-15T04:23:04.290Z,70.66
2018-01-15T04:25:33.276Z,70.53
2018-01-15T04:28:07.180Z,70.43
2018-01-15T04:30:37.991Z,69.48
2018-01-15T04:33:07.014Z,69.68
2018-01-15T04:35:36.220Z,69.34
2018-01-15T04:38:06.404Z,68.85
2018-01-15T04:40:35.233Z,69.37
2018-01-15T04:43:04.168Z,69.20
2018-01-15T04:45:33.014Z,68.94
2018-01-15T04:48:01.815Z,69.10
2018-01-15T04:50:30.638Z,69.01
2018-01-15T04:53:00.358Z,69.40
2018-01-15T04:55:29.144Z,69.53
2018-01-15T04:57:57.954Z,68.97
2018-01-15T05:00:28.473Z,69.42
2018-01-15T05:02:59.222Z,69.84
2018-01-15T05:05:28.038Z,69.83
2018-01-15T05:07:56.935Z,69.72
2018-01-15T05:10:25.709Z,69.85
2018-01-15T05:12:56.581Z,70.01
2018-01-15T05:15:27.896Z,70.11
2018-01-15T05:17:56.777Z,70.53
2018-01-15T05:20:25.629Z,70.39
2018-01-15T05:22:55.372Z,69.98
2018-01-15T05:25:24.287Z,70.17
2018-01-15T05:27:53.091Z,69.97
2018-01-15T05:30:25.827Z,69.87
2018-01-15T05:32:54.650Z,70.42
2018-01-15T05:35:23.485Z,70.94
2018-01-15T05:37:52.322Z,70.59
2018-01-15T05:40:21.278Z,70.21
2018-01-15T05:42:50.105Z,70.41
2018-01-15T05:45:21.535Z,70.59
2018-01-15T05:47:50.347Z,71.35
2018-01-15T05:50:19.292Z,71.32
2018-01-15T05:52:48.151Z,71.77
2018-01-15T05:55:16.961Z,72.14
2018-01-15T05:57:45.851Z,72.15
2018-01-15T06:00:16.617Z,72.18
2018-01-15T06:02:45.425Z,72.40
2018-01-15T06:05:14.215Z,72.02
2018-01-15T06:07:48.180Z,72.10
2018-01-15T06:10:17.069Z,74.06
2018-01-15T06:12:45.871Z,73.00
2018-01-15T06:15:15.520Z,73.67
2018-01-15T06:17:44.316Z,72.96
2018-01-15T06:20:13.255Z,73.22
2018-01-15T06:22:42.439Z,72.88
2018-01-15T06:25:11.274Z,73.04
2018-01-15T06:27:40.064Z,72.71
2018-01-15T06:30:09.741Z,72.14
2018-01-15T06:32:38.528Z,72.49
2018-01-15T06:35:07.338Z,73.86
2018-01-15T06:37:41.229Z,75.42
2018-01-15T06:40:10.053Z,77.40
2018-01-15T06:42:38.930Z,78.73
2018-01-15T06:45:07.995Z,79.16
2018-01-15T06:47:36.930Z,78.93
2018-01-15T06:50:05.785Z,79.47
2018-01-15T06:52:34.628Z,79.27
2018-01-15T06:55:03.466Z,78.69
2018-01-15T06:57:32.443Z,78.26
2018-01-15T07:00:03.078Z,78.47
2018-01-15T07:02:31.974Z,77.76
2018-01-15T07:05:02.672Z,78.79
2018-01-15T07:07:31.560Z,77.90
2018-01-15T07:10:00.380Z,77.51
2018-01-15T07:12:30.538Z,77.60
2018-01-15T07:15:00.857Z,77.74
2018-01-15T07:17:29.698Z,76.77
2018-01-15T07:19:58.536Z,76.48
2018-01-15T07:22:27.542Z,75.62
2018-01-15T07:24:56.448Z,75.39
2018-01-15T07:27:25.389Z,74.91
2018-01-15T07:29:56.877Z,75.19
2018-01-15T07:32:25.745Z,75.06
2018-01-15T07:34:54.613Z,75.19
2018-01-15T07:37:23.498Z,75.21
2018-01-15T07:39:52.431Z,75.16
2018-01-15T07:42:22.406Z,75.58
2018-01-15T07:44:51.308Z,75.80
2018-01-15T07:47:20.212Z,75.16
2018-01-15T07:49:49.122Z,75.10
2018-01-15T07:52:21.350Z,73.85
2018-01-15T07:54:50.181Z,74.04
2018-01-15T07:57:19.065Z,72.93
2018-01-15T07:59:47.981Z,72.55
2018-01-15T08:02:16.830Z,71.91
2018-01-15T08:04:45.696Z,71.09
2018-01-15T08:07:14.560Z,71.62
2018-01-15T08:09:43.396Z,72.22
2018-01-15T08:12:12.227Z,73.28
2018-01-15T08:14:41.995Z,72.60
2018-01-15T08:17:10.826Z,72.14
2018-01-15T08:19:39.691Z,72.81
2018-01-15T08:22:08.546Z,73.22
2018-01-15T08:24:37.406Z,73.12
2018-01-15T08:27:06.212Z,73.92
2018-01-15T08:29:35.082Z,74.16
2018-01-15T08:32:03.940Z,74.38
2018-01-15T08:34:32.770Z,75.14
2018-01-15T08:37:03.289Z,75.18
2018-01-15T08:39:32.113Z,75.78
2018-01-15T08:42:00.990Z,76.13
2018-01-15T08:44:30.880Z,75.26
2018-01-15T08:46:59.700Z,76.09
2018-01-15T08:49:28.503Z,75.07
2018-01-15T08:51:59.965Z,76.37
2018-01-15T08:54:28.775Z,76.20
2018-01-15T08:56:57.585Z,76.71
2018-01-15T08:59:26.457Z,76.16
2018-01-15T09:01:55.298Z,75.61
2018-01-15T09:04:24.079Z,76.21
2018-01-15T09:06:55.087Z,75.77
2018-01-15T09:09:23.939Z,75.16
2018-01-15T09:11:52.788Z,75.20
2018-01-15T09:14:23.358Z,74.63
2018-01-15T09:16:52.182Z,73.99
2018-01-15T09:19:21.013Z,74.30
2018-01-15T09:21:51.687Z,72.96
2018-01-15T09:24:20.480Z,72.70
2018-01-15T09:26:49.308Z,73.49
2018-01-15T09:29:18.140Z,73.15
2018-01-15T09:31:46.942Z,73.98
2018-01-15T09:34:15.782Z,73.98
2018-01-15T09:36:49.008Z,72.19
2018-01-15T09:39:17.857Z,72.19
2018-01-15T09:41:46.661Z,73.13
2018-01-15T09:44:16.330Z,72.94
2018-01-15T09:46:45.151Z,72.91
2018-01-15T09:49:13.960Z,72.73
2018-01-15T09:51:42.816Z,72.63
2018-01-15T09:54:11.644Z,73.83
2018-01-15T09:56:40.458Z,73.91
2018-01-15T09:59:10.174Z,73.28
2018-01-15T10:01:39.020Z,72.48
2018-01-15T10:04:07.795Z,71.60
2018-01-15T10:06:40.538Z,72.16
2018-01-15T10:09:09.430Z,71.04
2018-01-15T10:11:38.376Z,70.27
2018-01-15T10:14:08.133Z,69.36
2018-01-15T10:16:36.998Z,69.88
2018-01-15T10:19:05.823Z,69.04
2018-01-15T10:21:34.722Z,67.92
2018-01-15T10:24:03.618Z,68.15
2018-01-15T10:26:32.480Z,68.33
2018-01-15T10:29:04.867Z,67.63
2018-01-15T10:31:33.654Z,68.19
2018-01-15T10:34:02.508Z,67.25
2018-01-15T10:36:34.113Z,67.58
2018-01-15T10:39:02.966Z,69.33
2018-01-15T10:41:31.804Z,70.64
2018-01-15T10:44:00.697Z,71.34
2018-01-15T10:46:29.543Z,72.21
2018-01-15T10:48:58.362Z,72.24
2018-01-15T10:51:27.231Z,72.30
2018-01-15T10:53:56.055Z,71.12
2018-01-15T10:56:24.964Z,72.35
2018-01-15T10:58:56.283Z,72.14
2018-01-15T11:01:27.995Z,71.26
2018-01-15T11:03:56.840Z,71.52
2018-01-15T11:06:26.508Z,72.85
2018-01-15T11:08:55.335Z,75.22
2018-01-15T11:11:24.152Z,75.04
2018-01-15T11:13:53.034Z,73.45
2018-01-15T11:16:21.824Z,72.96
2018-01-15T11:18:50.725Z,73.44
2018-01-15T11:21:19.636Z,73.73
2018-01-15T11:23:48.574Z,73.77
2018-01-15T11:26:17.445Z,76.61
2018-01-15T11:28:47.281Z,72.73
2018-01-15T11:31:16.119Z,74.34
2018-01-15T11:33:44.999Z,75.05
2018-01-15T11:36:16.258Z,74.17
2018-01-15T11:38:45.070Z,73.60
2018-01-15T11:41:13.872Z,73.24
2018-01-15T11:43:44.523Z,73.16
2018-01-15T11:46:13.314Z,72.94
2018-01-15T11:48:42.125Z,72.37
2018-01-15T11:51:14.332Z,72.57
2018-01-15T11:53:43.105Z,72.12
2018-01-15T11:56:11.895Z,73.00
2018-01-15T11:58:40.770Z,73.28
2018-01-15T12:01:09.556Z,73.72
2018-01-15T12:03:38.448Z,73.70
2018-01-15T12:06:08.125Z,74.34
2018-01-15T12:08:39.069Z,74.17
2018-01-15T12:11:07.912Z,73.87
2018-01-15T12:13:36.950Z,74.08
2018-01-15T12:16:05.751Z,73.60
2018-01-15T12:18:34.633Z,74.18
2018-01-15T12:21:03.701Z,74.24
2018-01-15T12:23:32.552Z,74.41
2018-01-15T12:26:01.456Z,74.94
2018-01-15T12:28:31.267Z,74.59
2018-01-15T12:31:00.088Z,76.17
2018-01-15T12:33:28.878Z,76.84
2018-01-15T12:35:57.736Z,76.73
2018-01-15T12:38:27.521Z,76.90
2018-01-15T12:40:56.404Z,77.26
2018-01-15T12:43:26.085Z,77.59
2018-01-15T12:45:54.900Z,77.11
2018-01-15T12:48:23.710Z,78.98
2018-01-15T12:50:53.388Z,79.97
2018-01-15T12:53:22.247Z,79.53
2018-01-15T12:55:51.115Z,78.04
2018-01-15T12:58:23.352Z,77.80
2018-01-15T13:00:52.176Z,77.52
2018-01-15T13:03:21.299Z,77.36
2018-01-15T13:05:54.086Z,77.19
2018-01-15T13:08:34.525Z,78.01
2018-01-15T13:11:03.634Z,78.23
2018-01-15T13:13:32.445Z,78.59
2018-01-15T13:16:01.296Z,79.26
2018-01-15T13:18:32.579Z,78.90
2018-01-15T13:21:01.396Z,79.08
2018-01-15T13:23:30.225Z,79.19
2018-01-15T13:25:59.076Z,79.36
2018-01-15T13:28:27.891Z,79.03
2018-01-15T13:30:56.691Z,78.95
2018-01-15T13:33:25.614Z,78.96
2018-01-15T13:35:54.427Z,78.79
2018-01-15T13:38:23.313Z,78.60
2018-01-15T13:40:52.249Z,78.21
2018-01-15T13:43:21.096Z,79.44
2018-01-15T13:45:49.947Z,79.07
2018-01-15T13:48:19.636Z,79.51
2018-01-15T13:50:48.539Z,79.57
2018-01-15T13:53:17.684Z,79.71
2018-01-15T13:55:47.498Z,79.37
2018-01-15T13:58:16.289Z,80.03
2018-01-15T14:00:45.254Z,79.95
2018-01-15T14:03:15.018Z,80.06
2018-01-15T14:05:43.823Z,80.30
2018-01-15T14:08:12.644Z,80.20
2018-01-15T14:10:42.902Z,80.45
2018-01-15T14:13:11.853Z,80.78
2018-01-15T14:15:40.681Z,81.41
2018-01-15T14:18:09.548Z,81.08
2018-01-15T14:20:38.398Z,80.55
2018-01-15T14:23:07.202Z,81.19
2018-01-15T14:25:36.192Z,81.67
2018-01-15T14:28:05.021Z,81.08
2018-01-15T14:30:34.203Z,81.33
2018-01-15T14:33:03.093Z,81.21
2018-01-15T14:35:31.956Z,81.39
2018-01-15T14:38:00.772Z,81.55
2018-01-15T14:40:29.804Z,81.58
2018-01-15T14:42:58.610Z,81.58
2018-01-15T14:45:27.461Z,81.49
2018-01-15T14:47:59.737Z,81.73
2018-01-15T14:50:28.590Z,81.70
2018-01-15T14:52:57.393Z,81.53
2018-01-15T14:55:27.047Z,81.48
2018-01-15T14:57:55.955Z,81.77
2018-01-15T15:00:24.801Z,82.07
2018-01-15T15:02:53.657Z,82.56
2018-01-15T15:05:22.530Z,82.49
2018-01-15T15:07:51.421Z,82.60
2018-01-15T15:10:21.255Z,82.39
2018-01-15T15:12:50.183Z,82.17
2018-01-15T15:15:19.053Z,82.13
2018-01-15T15:17:47.984Z,82.43
2018-01-15T15:20:16.898Z,82.51
2018-01-15T15:22:45.718Z,82.65
2018-01-15T15:25:15.551Z,82.48
2018-01-15T15:27:44.415Z,82.81
2018-01-15T15:30:13.716Z,82.73
2018-01-15T15:32:45.077Z,82.50
2018-01-15T15:35:14.251Z,82.25
2018-01-15T15:37:43.135Z,82.33
2018-01-15T15:40:13.000Z,82.76
2018-01-15T15:42:44.726Z,82.94
2018-01-15T15:45:18.391Z,82.68
2018-01-15T15:47:50.351Z,82.33
2018-01-15T15:50:22.458Z,83.15
2018-01-15T15:52:54.025Z,83.02
2018-01-15T15:55:25.259Z,82.98
2018-01-15T15:57:56.820Z,82.66
2018-01-15T16:00:28.881Z,83.40
2018-01-15T16:03:02.273Z,82.99
2018-01-15T16:05:33.297Z,83.46
2018-01-15T16:08:02.193Z,83.37
2018-01-15T16:10:31.035Z,83.38
2018-01-15T16:12:59.872Z,83.38
2018-01-15T16:15:28.957Z,83.81
2018-01-15T16:17:58.240Z,83.16
2018-01-15T16:20:27.359Z,83.16
2018-01-15T16:22:59.392Z,82.93
2018-01-15T16:25:32.573Z,82.37
2018-01-15T16:28:01.477Z,82.61
2018-01-15T16:30:30.361Z,82.52
2018-01-15T16:33:01.315Z,82.35
2018-01-15T16:35:30.145Z,81.79
2018-01-15T16:37:59.025Z,82.60
2018-01-15T16:40:32.713Z,82.92
2018-01-15T16:43:01.711Z,83.35
2018-01-15T16:45:30.625Z,83.25
2018-01-15T16:47:59.756Z,83.23
2018-01-15T16:50:28.708Z,83.26
2018-01-15T16:52:57.629Z,83.18
2018-01-15T16:55:29.825Z,83.18
2018-01-15T16:57:58.637Z,83.38
2018-01-15T17:00:27.597Z,83.37
2018-01-15T17:02:57.315Z,83.48
2018-01-15T17:05:28.576Z,83.41
2018-01-15T17:07:59.852Z,83.58
2018-01-15T17:10:28.712Z,83.79
2018-01-15T17:12:58.244Z,83.10
2018-01-15T17:15:29.710Z,83.22
2018-01-15T17:17:58.825Z,82.92
2018-01-15T17:20:27.691Z,83.07
2018-01-15T17:22:56.925Z,82.81
2018-01-15T17:25:25.813Z,82.58
2018-01-15T17:27:54.639Z,82.57
2018-01-15T17:33:22.990Z,85.26
2018-01-15T17:35:53.659Z,84.19
2018-01-15T17:38:22.512Z,83.57
2018-01-15T17:40:51.392Z,82.87
2018-01-15T17:43:21.373Z,83.48
2018-01-15T17:45:50.213Z,83.17
2018-01-15T17:48:19.202Z,82.75
2018-01-15T17:50:49.887Z,83.21
2018-01-15T17:53:18.826Z,84.08
2018-01-15T17:55:47.668Z,83.80
2018-01-15T17:58:17.417Z,84.43
2018-01-15T18:00:46.324Z,83.97
2018-01-15T18:03:15.291Z,84.40
2018-01-15T18:05:45.661Z,84.55
2018-01-15T18:08:14.523Z,84.46
2018-01-15T18:10:43.362Z,85.11
2018-01-15T18:13:17.768Z,84.85
2018-01-15T18:15:46.704Z,85.30
2018-01-15T18:18:15.639Z,86.06
2018-01-15T18:20:44.608Z,85.68
2018-01-15T18:23:13.576Z,85.02
2018-01-15T18:25:42.451Z,85.56
2018-01-15T18:28:13.946Z,85.81
2018-01-15T18:30:42.835Z,85.90
2018-01-15T18:33:12.401Z,85.25
2018-01-15T18:35:41.348Z,85.41
2018-01-15T18:38:10.261Z,84.73
2018-01-15T18:40:39.284Z,85.24
2018-01-15T18:43:08.537Z,84.60
2018-01-15T18:45:37.424Z,84.82
2018-01-15T18:48:06.301Z,84.75
2018-01-15T18:50:35.261Z,85.42
2018-01-15T18:53:04.138Z,85.33
2018-01-15T18:55:32.979Z,84.94
2018-01-15T18:58:01.885Z,85.61
2018-01-15T19:00:30.766Z,85.92
2018-01-15T19:02:59.665Z,85.86
2018-01-15T19:05:28.537Z,85.92
2018-01-15T19:07:57.654Z,85.92
2018-01-15T19:10:26.554Z,86.29
2018-01-15T19:12:55.751Z,86.30
2018-01-15T19:15:24.753Z,85.91
2018-01-15T19:17:53.727Z,85.56
2018-01-15T19:20:22.691Z,85.60
2018-01-15T19:22:51.651Z,85.77
2018-01-15T19:25:20.668Z,86.41
2018-01-15T19:27:49.742Z,86.56
2018-01-15T19:30:18.747Z,86.48
2018-01-15T19:32:47.868Z,85.76
2018-01-15T19:38:37.511Z,86.20
2018-01-15T19:41:11.373Z,86.56
2018-01-15T19:44:05.014Z,86.77
2018-01-15T19:46:39.640Z,86.40
2018-01-15T19:49:13.987Z,85.46
2018-01-15T19:51:48.463Z,85.29
2018-01-15T19:54:24.717Z,85.11
2018-01-15T19:57:04.130Z,85.18
2018-01-15T19:59:42.214Z,85.01
2018-01-15T20:02:20.682Z,84.92
2018-01-15T20:04:58.424Z,85.38
2018-01-15T20:07:34.355Z,85.57
